createdAt,value
2022-09-17T00:01:28.178Z,1.10
2022-09-17T00:03:59.061Z,1.13
2022-09-17T00:06:27.764Z,1.03
2022-09-17T00:08:57.366Z,0.93
2022-09-17T00:11:28.266Z,1.03
2022-09-17T00:13:56.581Z,1.20
2022-09-17T00:16:27.696Z,0.97
2022-09-17T00:18:55.705Z,0.80
2022-09-17T00:21:23.999Z,1.00
2022-09-17T00:23:56.922Z,1.03
2022-09-17T00:26:25.132Z,1.07
2022-09-17T00:28:54.262Z,0.83
2022-09-17T00:31:22.958Z,0.90
2022-09-17T00:33:51.113Z,0.90
2022-09-17T00:36:20.488Z,0.97
2022-09-17T00:38:50.442Z,0.80
2022-09-17T00:41:20.285Z,0.93
2022-09-17T00:43:49.914Z,0.83
2022-09-17T00:46:30.496Z,0.80
2022-09-17T00:49:01.098Z,0.90
2022-09-17T00:51:33.873Z,0.70
2022-09-17T00:54:03.397Z,1.00
2022-09-17T00:56:34.881Z,1.10
2022-09-17T00:59:03.449Z,1.13
2022-09-17T01:01:31.772Z,1.03
2022-09-17T01:03:59.822Z,1.10
2022-09-17T01:06:35.558Z,1.23
2022-09-17T01:09:22.338Z,1.33
2022-09-17T01:12:37.698Z,1.50
2022-09-17T01:15:22.545Z,1.37
2022-09-17T01:18:04.926Z,1.10
2022-09-17T01:21:04.772Z,1.30
2022-09-17T01:24:07.250Z,1.30
2022-09-17T01:27:01.431Z,1.27
2022-09-17T01:29:46.411Z,1.17
2022-09-17T01:32:21.113Z,1.50
2022-09-17T01:34:56.744Z,1.30
2022-09-17T01:37:31.189Z,1.50
2022-09-17T01:40:05.254Z,1.30
2022-09-17T01:42:39.880Z,1.67
2022-09-17T01:45:13.229Z,1.50
2022-09-17T01:47:46.673Z,1.70
2022-09-17T01:50:18.281Z,1.73
2022-09-17T01:52:50.030Z,1.57
2022-09-17T01:55:20.529Z,1.93
2022-09-17T01:57:55.834Z,1.90
2022-09-17T02:00:24.929Z,2.00
2022-09-17T02:02:58.772Z,2.17
2022-09-17T02:05:30.408Z,2.07
2022-09-17T02:08:03.309Z,2.17
2022-09-17T02:10:35.241Z,1.80
2022-09-17T02:13:08.065Z,2.00
2022-09-17T02:15:41.161Z,2.10
2022-09-17T02:18:18.949Z,1.90
2022-09-17T02:20:51.380Z,2.30
2022-09-17T02:23:24.913Z,2.17
2022-09-17T02:25:58.105Z,2.27
2022-09-17T02:28:30.698Z,2.00
2022-09-17T02:30:58.519Z,1.80
2022-09-17T02:33:28.483Z,1.77
2022-09-17T02:35:56.381Z,2.10
2022-09-17T02:38:27.117Z,2.13
2022-09-17T02:41:02.546Z,2.10
2022-09-17T02:43:39.537Z,1.97
2022-09-17T02:46:32.105Z,2.40
2022-09-17T02:49:23.014Z,2.10
2022-09-17T02:52:00.597Z,2.07
2022-09-17T02:54:33.228Z,2.13
2022-09-17T02:57:11.484Z,2.17
2022-09-17T02:59:45.600Z,2.23
2022-09-17T03:02:18.896Z,2.10
2022-09-17T03:04:50.121Z,2.13
2022-09-17T03:07:20.636Z,2.10
2022-09-17T03:09:48.483Z,1.93
2022-09-17T03:12:16.709Z,2.23
2022-09-17T03:14:44.479Z,2.10
2022-09-17T03:17:12.904Z,1.87
2022-09-17T03:19:40.628Z,2.00
2022-09-17T03:22:09.789Z,2.37
2022-09-17T03:24:37.501Z,2.13
2022-09-17T03:27:05.560Z,2.03
2022-09-17T03:29:33.300Z,2.40
2022-09-17T03:32:01.245Z,2.03
2022-09-17T03:34:28.993Z,2.53
2022-09-17T03:36:56.732Z,1.93
2022-09-17T03:39:25.935Z,2.20
2022-09-17T03:41:53.679Z,2.00
2022-09-17T03:44:23.618Z,2.00
2022-09-17T03:46:51.917Z,2.50
2022-09-17T03:49:19.705Z,2.03
2022-09-17T03:51:47.456Z,1.83
2022-09-17T03:54:15.236Z,1.90
2022-09-17T03:56:44.453Z,2.00
2022-09-17T03:59:12.490Z,1.93
2022-09-17T04:01:40.541Z,1.53
2022-09-17T04:04:08.750Z,2.30
2022-09-17T04:06:36.704Z,1.97
2022-09-17T04:09:05.061Z,1.97
2022-09-17T04:11:32.960Z,1.83
2022-09-17T04:14:02.113Z,1.80
2022-09-17T04:16:29.889Z,1.67
2022-09-17T04:18:57.756Z,1.70
2022-09-17T04:21:25.530Z,1.60
2022-09-17T04:23:53.457Z,1.70
2022-09-17T04:26:21.212Z,1.90
2022-09-17T04:28:48.995Z,1.97
2022-09-17T04:31:18.163Z,1.80
2022-09-17T04:33:45.945Z,1.97
2022-09-17T04:36:13.658Z,1.70
2022-09-17T04:38:41.384Z,1.43
2022-09-17T04:41:09.265Z,1.50
2022-09-17T04:43:37.058Z,1.70
2022-09-17T04:46:04.958Z,1.70
2022-09-17T04:48:34.424Z,1.40
2022-09-17T04:51:02.160Z,1.33
2022-09-17T04:53:29.896Z,1.33
2022-09-17T04:55:57.645Z,1.50
2022-09-17T04:58:25.381Z,1.73
2022-09-17T05:00:53.203Z,1.40
2022-09-17T05:03:20.956Z,1.60
2022-09-17T05:05:50.072Z,1.50
2022-09-17T05:08:17.784Z,1.73
2022-09-17T05:10:45.671Z,1.40
2022-09-17T05:13:13.451Z,1.33
2022-09-17T05:15:41.265Z,1.67
2022-09-17T05:18:09.177Z,1.43
2022-09-17T05:20:36.969Z,1.50
2022-09-17T05:23:06.152Z,1.60
2022-09-17T05:25:33.885Z,1.50
2022-09-17T05:28:02.177Z,1.37
2022-09-17T05:30:30.234Z,1.47
2022-09-17T05:33:02.930Z,1.47
2022-09-17T05:35:31.393Z,1.63
2022-09-17T05:38:00.348Z,1.40
2022-09-17T05:40:30.013Z,1.53
2022-09-17T05:43:01.135Z,1.50
2022-09-17T05:45:29.642Z,1.30
2022-09-17T05:47:57.521Z,1.40
2022-09-17T05:50:25.365Z,1.37
2022-09-17T05:52:53.505Z,1.17
2022-09-17T05:55:23.687Z,1.37
2022-09-17T05:57:53.007Z,1.10
2022-09-17T06:00:20.861Z,1.27
2022-09-17T06:02:54.753Z,1.23
2022-09-17T06:05:22.551Z,1.13
2022-09-17T06:07:50.289Z,1.00
2022-09-17T06:10:18.359Z,0.80
2022-09-17T06:12:46.096Z,1.10
2022-09-17T06:15:15.404Z,0.70
2022-09-17T06:17:43.385Z,0.80
2022-09-17T06:20:11.325Z,0.80
2022-09-17T06:22:39.080Z,0.67
2022-09-17T06:25:08.004Z,0.80
2022-09-17T06:27:36.425Z,0.70
2022-09-17T06:30:04.861Z,0.97
2022-09-17T06:32:34.286Z,0.90
2022-09-17T06:35:03.192Z,1.00
2022-09-17T06:37:32.424Z,0.90
2022-09-17T06:40:00.988Z,0.80
2022-09-17T06:42:29.727Z,0.80
2022-09-17T06:44:59.740Z,0.80
2022-09-17T06:47:28.865Z,0.60
2022-09-17T06:49:59.734Z,0.93
2022-09-17T06:52:27.453Z,4.50
2022-09-17T06:54:55.203Z,2.87
2022-09-17T06:57:22.953Z,1.90
2022-09-17T06:59:50.955Z,1.90
2022-09-17T07:02:18.765Z,1.83
2022-09-17T07:04:46.637Z,1.70
2022-09-17T07:07:15.825Z,1.23
2022-09-17T07:09:43.554Z,1.70
2022-09-17T07:12:11.304Z,2.70
2022-09-17T07:14:39.050Z,5.10
2022-09-17T07:17:07.224Z,2.23
2022-09-17T07:19:34.957Z,2.00
2022-09-17T07:22:02.751Z,1.07
2022-09-17T07:24:33.116Z,1.20
2022-09-17T07:27:01.567Z,1.20
2022-09-17T07:29:29.283Z,1.10
2022-09-17T07:31:58.289Z,1.30
2022-09-17T07:34:27.998Z,1.53
2022-09-17T07:36:55.766Z,1.17
2022-09-17T07:39:23.508Z,1.20
2022-09-17T07:41:52.642Z,1.20
2022-09-17T07:44:22.026Z,1.40
2022-09-17T07:46:49.884Z,1.63
2022-09-17T07:49:17.807Z,1.83
2022-09-17T07:51:45.512Z,1.73
2022-09-17T07:54:13.250Z,2.23
2022-09-17T07:56:41.047Z,1.77
2022-09-17T07:59:10.513Z,3.50
2022-09-17T08:01:38.448Z,2.10
2022-09-17T08:04:06.958Z,2.13
2022-09-17T08:06:38.325Z,2.10
2022-09-17T08:09:06.974Z,2.20
2022-09-17T08:14:29.111Z,1.93
2022-09-17T08:16:57.619Z,1.97
2022-09-17T08:19:25.435Z,2.20
2022-09-17T08:21:53.281Z,1.77
2022-09-17T08:24:21.001Z,2.00
2022-09-17T08:26:48.727Z,2.00
2022-09-17T08:29:16.452Z,2.10
2022-09-17T08:31:45.637Z,6.47
2022-09-17T08:34:14.645Z,2.70
2022-09-17T08:36:42.378Z,2.80
2022-09-17T08:39:12.028Z,2.60
2022-09-17T08:41:53.144Z,2.40
2022-09-17T08:44:26.294Z,2.30
2022-09-17T08:47:01.234Z,4.47
2022-09-17T08:49:35.973Z,3.33
2022-09-17T08:52:35.093Z,3.50
2022-09-17T08:55:12.764Z,3.10
2022-09-17T08:57:49.548Z,3.00
2022-09-17T09:00:20.842Z,2.80
2022-09-17T09:03:08.408Z,2.73
2022-09-17T09:05:44.573Z,2.10
2022-09-17T09:08:20.032Z,2.10
2022-09-17T09:10:55.270Z,1.80
2022-09-17T09:13:25.629Z,1.80
2022-09-17T09:15:57.655Z,2.00
2022-09-17T09:18:31.444Z,2.23
2022-09-17T09:21:11.118Z,1.93
2022-09-17T09:23:51.596Z,1.60
2022-09-17T09:26:21.240Z,1.60
2022-09-17T09:29:02.892Z,1.77
2022-09-17T09:32:02.041Z,1.40
2022-09-17T09:34:34.585Z,1.93
2022-09-17T09:37:15.260Z,1.80
2022-09-17T09:39:46.195Z,1.47
2022-09-17T09:42:20.358Z,1.37
2022-09-17T09:44:48.190Z,1.50
2022-09-17T09:47:30.820Z,1.73
2022-09-17T09:50:23.212Z,1.60
2022-09-17T09:53:05.496Z,1.67
2022-09-17T09:55:52.852Z,1.50
2022-09-17T09:58:28.317Z,1.60
2022-09-17T10:00:56.036Z,1.40
2022-09-17T10:03:25.393Z,1.33
2022-09-17T10:05:57.953Z,1.63
2022-09-17T10:08:26.782Z,1.70
2022-09-17T10:10:57.139Z,1.57
2022-09-17T10:13:25.944Z,1.60
2022-09-17T10:15:53.695Z,1.30
2022-09-17T10:18:22.851Z,1.30
2022-09-17T10:21:02.020Z,1.70
2022-09-17T10:23:34.243Z,1.53
2022-09-17T10:26:01.974Z,1.50
2022-09-17T10:28:38.709Z,1.53
2022-09-17T10:31:10.282Z,1.30
2022-09-17T10:33:42.140Z,1.53
2022-09-17T10:36:14.651Z,1.40
2022-09-17T10:38:44.095Z,1.70
2022-09-17T10:41:14.911Z,1.70
2022-09-17T10:43:43.641Z,1.40
2022-09-17T10:46:16.622Z,1.27
2022-09-17T10:48:47.573Z,1.97
2022-09-17T10:51:25.145Z,2.50
2022-09-17T10:54:06.704Z,2.50
2022-09-17T10:56:37.274Z,2.83
2022-09-17T10:59:21.963Z,1.83
2022-09-17T11:02:01.110Z,1.83
2022-09-17T11:04:40.988Z,1.57
2022-09-17T11:07:26.461Z,1.40
2022-09-17T11:10:00.607Z,1.53
2022-09-17T11:12:38.021Z,1.33
2022-09-17T11:15:20.832Z,1.50
2022-09-17T11:18:05.643Z,2.00
2022-09-17T11:20:59.254Z,1.63
2022-09-17T11:23:48.411Z,1.60
2022-09-17T11:26:29.925Z,1.20
2022-09-17T11:29:09.889Z,1.57
2022-09-17T11:31:45.107Z,1.50
2022-09-17T11:34:26.097Z,1.20
2022-09-17T11:37:03.636Z,1.00
2022-09-17T11:39:41.239Z,1.40
2022-09-17T11:42:14.288Z,1.30
2022-09-17T11:44:48.378Z,1.60
2022-09-17T11:47:20.885Z,1.50
2022-09-17T11:49:54.401Z,1.33
2022-09-17T11:52:27.565Z,1.50
2022-09-17T11:55:03.667Z,1.77
2022-09-17T11:57:34.847Z,2.17
2022-09-17T12:00:07.587Z,1.70
2022-09-17T12:02:47.221Z,1.23
2022-09-17T12:05:20.156Z,1.30
2022-09-17T12:07:55.214Z,1.60
2022-09-17T12:10:42.597Z,3.50
2022-09-17T12:13:25.245Z,5.40
2022-09-17T12:16:03.603Z,3.10
2022-09-17T12:18:43.477Z,2.13
2022-09-17T12:21:15.004Z,1.23
2022-09-17T12:23:48.313Z,1.53
2022-09-17T12:26:31.236Z,1.30
2022-09-17T12:29:06.669Z,1.20
2022-09-17T12:31:42.851Z,1.00
2022-09-17T12:34:27.113Z,1.17
2022-09-17T12:37:03.226Z,1.10
2022-09-17T12:39:47.771Z,1.00
2022-09-17T12:42:31.193Z,1.03
2022-09-17T12:45:21.496Z,1.20
2022-09-17T12:48:13.725Z,1.07
2022-09-17T12:50:53.583Z,1.30
2022-09-17T12:53:29.128Z,1.30
2022-09-17T12:56:06.858Z,1.33
2022-09-17T12:58:51.578Z,1.00
2022-09-17T13:01:23.949Z,1.30
2022-09-17T13:03:59.017Z,1.53
2022-09-17T13:07:07.733Z,1.37
2022-09-17T13:09:52.409Z,1.80
2022-09-17T13:12:28.261Z,1.40
2022-09-17T13:15:29.276Z,1.50
2022-09-17T13:18:22.985Z,1.50
2022-09-17T13:21:05.387Z,1.43
2022-09-17T13:23:36.899Z,1.23
2022-09-17T13:26:06.669Z,1.30
2022-09-17T13:29:00.294Z,1.30
2022-09-17T13:31:50.776Z,0.80
2022-09-17T13:34:30.641Z,0.67
2022-09-17T13:37:00.096Z,0.80
2022-09-17T13:39:41.108Z,0.83
2022-09-17T13:42:14.564Z,0.80
2022-09-17T13:44:45.413Z,0.80
2022-09-17T13:47:25.479Z,0.97
2022-09-17T13:49:57.972Z,1.20
2022-09-17T13:52:41.920Z,1.10
2022-09-17T13:55:30.253Z,0.90
2022-09-17T13:57:58.894Z,0.90
2022-09-17T14:00:52.903Z,0.70
2022-09-17T14:03:52.360Z,0.70
2022-09-17T14:06:54.746Z,0.60
2022-09-17T14:09:51.223Z,0.60
2022-09-17T14:12:57.472Z,0.50
2022-09-17T14:15:56.540Z,0.63
2022-09-17T14:18:58.817Z,0.50
2022-09-17T14:21:34.051Z,0.50
2022-09-17T14:24:05.100Z,0.70
2022-09-17T14:26:59.388Z,0.63
2022-09-17T14:29:56.538Z,0.80
2022-09-17T14:32:32.118Z,0.80
2022-09-17T14:35:01.582Z,0.50
2022-09-17T14:37:31.068Z,0.70
2022-09-17T14:40:00.328Z,0.70
2022-09-17T14:42:35.165Z,0.73
2022-09-17T14:45:06.329Z,0.50
2022-09-17T14:47:34.080Z,0.60
2022-09-17T14:50:23.290Z,0.83
2022-09-17T14:52:53.530Z,0.67
2022-09-17T14:55:23.940Z,0.93
2022-09-17T14:57:54.005Z,0.77
2022-09-17T15:00:24.329Z,0.90
2022-09-17T15:02:55.538Z,1.00
2022-09-17T15:05:27.925Z,1.10
2022-09-17T15:08:15.457Z,0.90
2022-09-17T15:10:55.130Z,0.90
2022-09-17T15:13:27.417Z,1.10
2022-09-17T15:16:01.986Z,1.10
2022-09-17T15:18:37.994Z,1.03
2022-09-17T15:21:12.651Z,1.27
2022-09-17T15:23:43.608Z,1.23
2022-09-17T15:26:13.105Z,1.23
2022-09-17T15:28:43.964Z,1.00
2022-09-17T15:31:18.850Z,1.17
2022-09-17T15:33:47.672Z,1.20
2022-09-17T15:36:21.427Z,1.10
2022-09-17T15:38:51.266Z,1.20
2022-09-17T15:41:30.350Z,1.60
2022-09-17T15:44:29.631Z,1.77
2022-09-17T15:47:31.905Z,1.50
2022-09-17T15:50:15.537Z,1.20
2022-09-17T15:52:43.552Z,1.20
2022-09-17T15:55:34.776Z,1.40
2022-09-17T15:58:05.409Z,1.20
2022-09-17T16:00:33.722Z,1.17
2022-09-17T16:03:45.614Z,0.80
2022-09-17T16:06:38.110Z,0.70
2022-09-17T16:09:39.831Z,0.70
2022-09-17T16:12:11.702Z,0.60
2022-09-17T16:14:39.449Z,0.70
2022-09-17T16:17:21.101Z,0.97
2022-09-17T16:19:48.853Z,0.70
2022-09-17T16:22:16.575Z,0.90
2022-09-17T16:24:44.288Z,0.83
2022-09-17T16:27:19.041Z,0.80
2022-09-17T16:29:48.885Z,0.70
2022-09-17T16:32:16.657Z,0.70
2022-09-17T16:34:44.450Z,0.70
2022-09-17T16:37:12.211Z,0.80
2022-09-17T16:39:39.949Z,0.70
2022-09-17T16:42:07.864Z,0.87
2022-09-17T16:44:36.933Z,0.70
2022-09-17T16:47:05.019Z,0.90
2022-09-17T16:49:32.828Z,0.60
2022-09-17T16:52:00.540Z,0.57
2022-09-17T16:54:28.296Z,1.00
2022-09-17T16:56:56.828Z,0.60
2022-09-17T16:59:24.556Z,0.50
2022-09-17T17:01:53.625Z,0.70
2022-09-17T17:04:21.478Z,0.60
2022-09-17T17:06:49.245Z,0.70
2022-09-17T17:09:17.061Z,0.67
2022-09-17T17:11:44.870Z,0.70
2022-09-17T17:14:14.911Z,0.70
2022-09-17T17:16:43.523Z,0.70
2022-09-17T17:19:12.845Z,0.70
2022-09-17T17:21:42.969Z,0.70
2022-09-17T17:24:14.369Z,0.80
2022-09-17T17:26:42.080Z,0.80
2022-09-17T17:29:09.871Z,0.80
2022-09-17T17:31:37.789Z,0.63
2022-09-17T17:34:05.629Z,0.70
2022-09-17T17:36:34.834Z,0.90
2022-09-17T17:39:03.037Z,0.70
2022-09-17T17:41:30.800Z,1.03
2022-09-17T17:43:58.563Z,1.00
2022-09-17T17:46:26.408Z,1.00
2022-09-17T17:48:54.280Z,0.90
2022-09-17T17:51:23.729Z,1.00
2022-09-17T17:53:52.852Z,0.87
2022-09-17T17:56:20.729Z,0.97
2022-09-17T17:58:48.652Z,0.90
2022-09-17T18:01:19.225Z,1.67
2022-09-17T18:03:47.201Z,1.03
2022-09-17T18:06:15.193Z,1.00
2022-09-17T18:08:44.752Z,0.90
2022-09-17T18:11:13.853Z,1.10
2022-09-17T18:13:41.778Z,1.07
2022-09-17T18:16:12.363Z,1.17
2022-09-17T18:18:44.718Z,1.50
2022-09-17T18:21:14.948Z,1.47
2022-09-17T18:23:43.415Z,1.40
2022-09-17T18:26:15.108Z,1.17
2022-09-17T18:28:42.990Z,1.27
2022-09-17T18:31:18.967Z,1.00
2022-09-17T18:33:47.149Z,1.00
2022-09-17T18:36:14.873Z,0.80
2022-09-17T18:38:42.785Z,0.70
2022-09-17T18:41:13.973Z,0.80
2022-09-17T18:43:42.370Z,0.60
2022-09-17T18:46:10.420Z,0.60
2022-09-17T18:48:38.213Z,0.50
2022-09-17T18:51:08.427Z,0.60
2022-09-17T18:53:38.329Z,0.70
2022-09-17T18:56:09.523Z,0.60
2022-09-17T18:58:38.679Z,0.80
2022-09-17T19:01:07.377Z,0.47
2022-09-17T19:03:36.054Z,0.80
2022-09-17T19:06:04.689Z,0.80
2022-09-17T19:08:32.480Z,0.90
2022-09-17T19:11:00.281Z,0.70
2022-09-17T19:13:33.529Z,0.90
2022-09-17T19:16:03.441Z,1.00
2022-09-17T19:18:32.962Z,0.90
2022-09-17T19:21:01.586Z,1.47
2022-09-17T19:23:30.894Z,1.80
2022-09-17T19:25:58.821Z,1.33
2022-09-17T19:28:26.558Z,1.90
2022-09-17T19:30:54.347Z,2.17
2022-09-17T19:33:23.473Z,2.33
2022-09-17T19:35:51.417Z,1.73
2022-09-17T19:38:19.164Z,0.70
2022-09-17T19:40:57.045Z,0.57
2022-09-17T19:43:24.985Z,0.80
2022-09-17T19:45:52.845Z,0.90
2022-09-17T19:48:24.650Z,0.80
2022-09-17T19:50:54.789Z,1.20
2022-09-17T19:53:22.890Z,0.70
2022-09-17T19:55:50.733Z,0.70
2022-09-17T19:58:18.504Z,0.50
2022-09-17T20:00:46.696Z,0.77
2022-09-17T20:03:14.754Z,1.00
2022-09-17T20:05:42.564Z,1.00
2022-09-17T20:08:11.657Z,1.83
2022-09-17T20:10:39.382Z,1.80
2022-09-17T20:13:07.132Z,1.30
2022-09-17T20:15:36.312Z,1.00
2022-09-17T20:18:04.379Z,0.80
2022-09-17T20:20:32.103Z,1.10
2022-09-17T20:22:59.861Z,0.80
2022-09-17T20:25:28.925Z,0.63
2022-09-17T20:27:56.697Z,0.60
2022-09-17T20:30:24.502Z,0.60
2022-09-17T20:32:52.233Z,0.70
2022-09-17T20:35:19.982Z,0.60
2022-09-17T20:40:36.799Z,0.60
2022-09-17T20:43:04.559Z,0.60
2022-09-17T20:45:32.286Z,0.80
2022-09-17T20:48:00.015Z,0.60
2022-09-17T20:50:27.758Z,1.20
2022-09-17T20:52:55.472Z,1.10
2022-09-17T20:55:23.185Z,0.90
2022-09-17T20:57:53.601Z,0.67
2022-09-17T21:00:21.588Z,0.67
2022-09-17T21:02:54.043Z,0.40
2022-09-17T21:05:21.768Z,0.50
2022-09-17T21:07:49.529Z,0.40
2022-09-17T21:10:17.373Z,0.67
2022-09-17T21:12:45.429Z,0.50
2022-09-17T21:15:14.834Z,0.50
2022-09-17T21:17:45.234Z,0.63
2022-09-17T21:20:13.005Z,1.40
2022-09-17T21:22:40.752Z,1.10
2022-09-17T21:25:09.162Z,0.90
2022-09-17T21:27:36.887Z,0.70
2022-09-17T21:30:09.350Z,0.60
2022-09-17T21:32:38.706Z,0.50
2022-09-17T21:35:06.925Z,0.50
2022-09-17T21:37:34.646Z,0.53
2022-09-17T21:40:03.061Z,0.60
2022-09-17T21:42:30.820Z,0.50
2022-09-17T21:44:58.541Z,0.50
2022-09-17T21:47:26.302Z,0.57
2022-09-17T21:49:55.396Z,0.50
2022-09-17T21:52:23.115Z,0.60
2022-09-17T21:54:50.888Z,0.40
2022-09-17T21:57:18.616Z,0.43
2022-09-17T21:59:46.365Z,0.70
2022-09-17T22:02:14.145Z,0.60
2022-09-17T22:04:41.930Z,0.70
2022-09-17T22:07:11.025Z,0.90
2022-09-17T22:09:39.098Z,0.50
2022-09-17T22:12:07.473Z,0.57
2022-09-17T22:14:35.239Z,1.00
2022-09-17T22:17:02.998Z,1.00
2022-09-17T22:19:30.729Z,0.57
2022-09-17T22:21:58.485Z,0.60
2022-09-17T22:24:27.591Z,0.90
2022-09-17T22:26:58.129Z,0.60
2022-09-17T22:29:27.430Z,0.70
2022-09-17T22:31:55.191Z,0.60
2022-09-17T22:34:25.145Z,0.90
2022-09-17T22:36:52.927Z,0.57
2022-09-17T22:39:21.933Z,0.50
2022-09-17T22:41:51.510Z,0.47
2022-09-17T22:44:20.262Z,0.60
2022-09-17T22:46:49.649Z,0.60
2022-09-17T22:49:18.488Z,0.63
2022-09-17T22:51:47.412Z,0.70
2022-09-17T22:54:17.045Z,0.97
2022-09-17T22:56:45.761Z,0.60
2022-09-17T22:59:15.454Z,0.80
2022-09-17T23:01:43.448Z,1.00
2022-09-17T23:04:11.388Z,0.70
2022-09-17T23:06:41.838Z,0.60
2022-09-17T23:09:10.215Z,0.63
2022-09-17T23:11:39.230Z,0.60
2022-09-17T23:14:09.981Z,0.60
2022-09-17T23:16:40.944Z,0.77
2022-09-17T23:19:09.141Z,0.50
2022-09-17T23:21:37.966Z,0.70
2022-09-17T23:24:07.008Z,0.40
2022-09-17T23:26:34.956Z,0.83
2022-09-17T23:29:05.240Z,0.70
2022-09-17T23:31:35.517Z,0.50
2022-09-17T23:34:05.914Z,0.50
2022-09-17T23:36:35.797Z,0.60
2022-09-17T23:39:04.808Z,0.50
2022-09-17T23:41:34.132Z,0.60
2022-09-17T23:44:03.663Z,0.60
2022-09-17T23:46:34.046Z,0.60
2022-09-17T23:49:01.895Z,0.70
2022-09-17T23:51:32.508Z,0.70
2022-09-17T23:54:00.372Z,0.60
2022-09-17T23:56:29.264Z,0.50
2022-09-17T23:58:57.725Z,0.60
